Time;durP1;ratioP1;P1;durP2;ratioP2;P2;SDS_P1;SDS_P2;PMS_P1;PMS_P2;Temp;Humidity;BMP_temperature;BMP_pressure;BME280_temperature;BME280_humidity;BME280_pressure;Samples;Min_cycle;Max_cycle;Signal;HPM_P1;HPM_P2
2021/12/22 00:00:47;;;;;;;11.02;4.70;;;30.60;99.90;;;;;;5101880;28;20961;-78
2021/12/22 00:03:15;;;;;;;12.60;5.10;;;31.00;99.30;;;;;;5106801;28;20027;-80
2021/12/22 00:05:47;;;;;;;8.13;4.28;;;31.40;98.70;;;;;;5100670;28;20019;-81
2021/12/22 00:08:17;;;;;;;10.13;4.65;;;31.50;98.60;;;;;;5102250;28;20535;-80
2021/12/22 00:10:47;;;;;;;8.25;4.32;;;31.60;97.50;;;;;;5106306;28;20024;-85
2021/12/22 00:13:14;;;;;;;10.80;4.75;;;32.00;97.10;;;;;;5106540;28;20035;-83
2021/12/22 00:15:42;;;;;;;7.65;4.00;;;32.10;96.20;;;;;;5105505;28;20035;-80
2021/12/22 00:18:09;;;;;;;11.40;4.93;;;32.20;95.80;;;;;;5107741;28;20046;-82
2021/12/22 00:20:37;;;;;;;8.80;5.60;;;32.10;95.10;;;;;;5104824;28;20023;-82
2021/12/22 00:23:04;;;;;;;16.85;6.03;;;31.90;95.40;;;;;;5102849;28;20058;-81
2021/12/22 00:25:32;;;;;;;11.77;5.45;;;31.60;95.50;;;;;;5101169;28;20020;-82
2021/12/22 00:27:59;;;;;;;7.80;4.60;;;31.40;95.50;;;;;;5104439;28;20020;-78
2021/12/22 00:30:27;;;;;;;9.18;4.15;;;30.90;96.40;;;;;;5112286;28;20049;-82
2021/12/22 00:33:02;;;;;;;8.57;4.97;;;30.90;96.50;;;;;;5118208;28;20467;-84
2021/12/22 00:35:38;;;;;;;12.27;5.03;;;31.20;96.30;;;;;;5107513;28;20024;-81
2021/12/22 00:38:06;;;;;;;12.07;5.55;;;31.50;95.60;;;;;;5103522;28;20040;-81
2021/12/22 00:40:34;;;;;;;11.10;4.78;;;31.70;95.50;;;;;;5099652;28;20090;-84
2021/12/22 00:43:01;;;;;;;10.05;4.60;;;32.00;96.60;;;;;;5099917;28;20019;-83
2021/12/22 00:45:31;;;;;;;6.70;4.53;;;32.10;94.80;;;;;;5106711;27;20114;-83
2021/12/22 00:47:58;;;;;;;10.38;5.30;;;32.00;94.70;;;;;;5106431;28;20023;-80
2021/12/22 00:50:29;;;;;;;10.75;5.15;;;31.70;94.70;;;;;;5107985;28;20078;-84
2021/12/22 00:52:57;;;;;;;10.90;4.68;;;31.80;95.10;;;;;;5102224;27;20016;-81
2021/12/22 00:55:25;;;;;;;10.27;5.00;;;31.80;94.70;;;;;;5105326;28;20519;-81
2021/12/22 00:57:52;;;;;;;6.72;4.05;;;31.90;94.20;;;;;;5104938;28;20074;-80
2021/12/22 01:00:24;;;;;;;9.93;4.47;;;32.00;94.20;;;;;;5113709;27;20038;-80
2021/12/22 01:02:52;;;;;;;8.93;4.30;;;32.20;94.30;;;;;;5107965;28;20196;-78
2021/12/22 01:05:20;;;;;;;11.57;4.93;;;32.50;93.70;;;;;;5107086;28;20044;-82
2021/12/22 01:07:49;;;;;;;7.50;3.50;;;32.90;93.00;;;;;;5107801;27;20431;-80
2021/12/22 01:10:21;;;;;;;7.75;3.95;;;33.10;92.70;;;;;;5107980;28;20501;-85
2021/12/22 01:12:48;;;;;;;6.75;3.53;;;33.10;93.60;;;;;;5115742;28;20026;-81
2021/12/22 01:15:16;;;;;;;7.07;4.03;;;33.00;93.00;;;;;;5109831;28;20489;-83
2021/12/22 01:17:47;;;;;;;5.70;3.72;;;32.90;92.80;;;;;;5107986;27;20093;-83
2021/12/22 01:20:29;;;;;;;7.88;3.58;;;33.00;92.70;;;;;;5111570;27;20026;-83
2021/12/22 01:23:03;;;;;;;13.55;4.00;;;32.90;92.50;;;;;;5105113;28;20481;-82
2021/12/22 01:25:35;;;;;;;7.25;2.97;;;33.10;92.50;;;;;;5105470;27;20024;-78
2021/12/22 01:28:03;;;;;;;7.72;4.03;;;33.30;92.30;;;;;;5107380;27;20032;-83
2021/12/22 01:30:32;;;;;;;6.68;4.03;;;33.10;92.00;;;;;;5105276;28;20160;-79
2021/12/22 01:33:03;;;;;;;8.73;3.60;;;32.60;92.00;;;;;;5098933;28;20019;-75
2021/12/22 01:35:33;;;;;;;9.77;3.45;;;32.40;92.60;;;;;;5104747;27;20500;-80
2021/12/22 01:38:00;;;;;;;7.35;3.83;;;32.50;93.00;;;;;;5107109;27;20052;-76
2021/12/22 01:40:28;;;;;;;7.47;3.10;;;32.90;92.80;;;;;;5103341;28;20040;-80
2021/12/22 01:42:56;;;;;;;7.72;3.97;;;33.30;91.50;;;;;;5106990;28;20127;-77
2021/12/22 01:46:08;;;;;;;7.32;3.33;;;33.50;91.20;;;;;;5107709;28;20023;-79
2021/12/22 01:49:10;;;;;;;6.60;2.67;;;33.80;91.10;;;;;;5104222;27;20119;-80
2021/12/22 01:52:01;;;;;;;6.20;3.58;;;33.80;90.60;;;;;;5100639;28;20024;-78
2021/12/22 01:54:33;;;;;;;8.52;2.65;;;33.40;90.80;;;;;;5107891;27;20039;-77
2021/12/22 01:57:07;;;;;;;6.60;2.63;;;33.50;90.90;;;;;;5103816;27;20084;-80
2021/12/22 01:59:34;;;;;;;5.35;2.75;;;33.60;90.90;;;;;;5103099;27;20020;-79
2021/12/22 02:02:02;;;;;;;9.07;3.55;;;33.70;91.00;;;;;;5101270;28;20084;-79
2021/12/22 02:04:29;;;;;;;7.40;3.80;;;33.80;90.10;;;;;;5084707;28;20023;-78
2021/12/22 02:06:56;;;;;;;8.82;3.97;;;33.80;90.50;;;;;;5101724;28;20504;-77
2021/12/22 02:10:02;;;;;;;6.93;3.50;;;33.60;90.50;;;;;;5109167;28;20034;-77
2021/12/22 02:12:12;;;;;;;14.57;3.05;;;33.60;90.70;;;;;;5102367;27;20082;-77
2021/12/22 02:14:41;;;;;;;9.80;3.20;;;33.60;90.20;;;;;;5101032;28;20093;-78
2021/12/22 02:17:11;;;;;;;5.03;2.50;;;33.60;90.00;;;;;;5106031;28;20034;-76
2021/12/22 02:19:49;;;;;;;6.40;3.45;;;33.40;89.70;;;;;;5106771;28;20024;-79
2021/12/22 02:22:18;;;;;;;4.82;2.75;;;33.10;90.00;;;;;;5100387;28;20071;-79
2021/12/22 02:24:49;;;;;;;6.10;2.33;;;32.80;90.40;;;;;;5096309;27;20430;-77
2021/12/22 02:27:30;;;;;;;6.05;3.13;;;32.60;90.50;;;;;;5103267;27;20461;-79
2021/12/22 02:30:01;;;;;;;6.60;3.20;;;32.50;90.60;;;;;;5107182;28;20038;-78
2021/12/22 02:35:15;;;;;;;9.45;3.13;;;32.90;90.30;;;;;;5106363;28;20031;-81
2021/12/22 02:37:43;;;;;;;4.20;2.78;;;33.00;90.00;;;;;;5104076;28;20055;-81
2021/12/22 02:40:15;;;;;;;5.55;2.45;;;33.10;89.50;;;;;;5099834;27;20121;-79
2021/12/22 02:42:47;;;;;;;6.57;3.10;;;33.20;90.20;;;;;;5102512;28;20051;-80
2021/12/22 02:45:19;;;;;;;4.82;3.38;;;33.30;90.00;;;;;;5102559;28;20020;-80
2021/12/22 02:47:47;;;;;;;5.55;2.50;;;33.20;89.50;;;;;;5096803;28;20023;-79
2021/12/22 02:50:16;;;;;;;4.53;3.40;;;32.90;88.40;;;;;;5102847;27;20051;-81
2021/12/22 02:53:00;;;;;;;5.68;2.92;;;32.60;90.00;;;;;;5101541;27;20034;-79
2021/12/22 02:55:40;;;;;;;9.93;3.58;;;32.40;90.30;;;;;;5102942;28;20027;-82
2021/12/22 02:58:08;;;;;;;6.53;2.63;;;32.40;90.10;;;;;;5104134;27;20031;-79
2021/12/22 03:01:07;;;;;;;6.13;3.78;;;32.60;90.20;;;;;;5102407;27;20244;-83
2021/12/22 03:06:11;;;;;;;6.72;2.90;;;33.00;89.60;;;;;;5104889;28;20081;-77
2021/12/22 03:08:38;;;;;;;11.57;5.75;;;33.20;90.10;;;;;;5100351;28;20118;-76
2021/12/22 03:11:06;;;;;;;9.90;3.75;;;32.90;89.20;;;;;;5106891;28;20028;-80
2021/12/22 03:13:33;;;;;;;8.75;3.78;;;32.60;89.30;;;;;;5108036;28;20027;-80
2021/12/22 03:16:00;;;;;;;8.85;3.22;;;32.70;89.60;;;;;;5100091;28;20028;-84
2021/12/22 03:18:28;;;;;;;7.47;3.10;;;32.90;89.70;;;;;;5104076;28;20469;-83
2021/12/22 03:21:04;;;;;;;6.57;3.35;;;32.70;89.70;;;;;;5103281;28;20050;-79
2021/12/22 03:23:31;;;;;;;9.48;3.58;;;32.70;89.60;;;;;;5102011;28;20110;-79
2021/12/22 03:26:01;;;;;;;8.05;4.00;;;32.50;90.10;;;;;;5100522;28;20118;-78
2021/12/22 03:28:30;;;;;;;7.25;3.20;;;32.70;89.50;;;;;;5103464;28;20402;-78
2021/12/22 03:30:59;;;;;;;4.75;3.63;;;32.60;89.20;;;;;;5103938;28;20020;-81
2021/12/22 03:33:26;;;;;;;5.90;3.33;;;32.50;88.80;;;;;;5099683;28;20024;-83
2021/12/22 03:35:54;;;;;;;6.07;3.35;;;32.40;89.40;;;;;;5102032;28;20035;-82
2021/12/22 03:38:21;;;;;;;8.23;3.65;;;32.40;89.20;;;;;;5101514;27;22438;-79
2021/12/22 03:40:48;;;;;;;4.45;2.83;;;32.60;89.60;;;;;;5097438;27;20106;-80
2021/12/22 03:43:16;;;;;;;5.80;2.97;;;32.60;88.50;;;;;;5105382;28;20023;-79
2021/12/22 03:45:43;;;;;;;7.97;3.42;;;32.50;89.50;;;;;;5109776;28;20073;-82
2021/12/22 03:48:10;;;;;;;8.15;2.90;;;32.30;89.40;;;;;;5106019;28;20035;-78
2021/12/22 03:50:38;;;;;;;5.82;3.40;;;32.10;89.50;;;;;;5109831;28;20110;-77
2021/12/22 03:53:05;;;;;;;5.20;3.08;;;31.90;89.80;;;;;;5106419;28;20026;-79
2021/12/22 03:55:32;;;;;;;6.45;3.25;;;31.80;90.00;;;;;;5104841;28;20169;-75
2021/12/22 03:58:00;;;;;;;6.65;3.03;;;31.70;90.30;;;;;;5110119;28;20038;-80
2021/12/22 04:00:28;;;;;;;7.43;3.45;;;31.50;90.40;;;;;;5107465;28;20486;-78
2021/12/22 04:02:55;;;;;;;7.65;3.08;;;31.30;90.20;;;;;;5110804;28;20032;-80
2021/12/22 04:05:23;;;;;;;8.65;2.92;;;30.90;90.90;;;;;;5110660;28;20443;-77
2021/12/22 04:07:53;;;;;;;9.13;4.00;;;30.80;90.70;;;;;;5107320;28;20108;-78
2021/12/22 04:10:22;;;;;;;6.53;2.75;;;31.00;91.00;;;;;;5108437;28;20445;-75
2021/12/22 04:12:57;;;;;;;4.63;2.67;;;31.40;91.00;;;;;;5108036;28;20381;-79
2021/12/22 04:15:28;;;;;;;6.93;2.40;;;31.50;90.90;;;;;;5104277;28;20027;-82
2021/12/22 04:17:56;;;;;;;7.57;3.20;;;31.50;90.10;;;;;;5113515;28;20381;-78
2021/12/22 04:20:24;;;;;;;8.10;3.22;;;31.40;90.20;;;;;;5112808;28;20554;-82
2021/12/22 04:22:51;;;;;;;5.60;2.70;;;31.40;90.30;;;;;;5119193;27;20027;-77
2021/12/22 04:25:22;;;;;;;8.73;3.47;;;31.30;90.10;;;;;;5118153;27;20020;-78
2021/12/22 04:27:51;;;;;;;7.55;3.45;;;31.10;90.10;;;;;;5114906;28;20363;-75
2021/12/22 04:30:20;;;;;;;5.13;2.63;;;31.00;90.00;;;;;;5118346;28;20015;-80
2021/12/22 04:32:47;;;;;;;7.57;3.60;;;30.90;90.30;;;;;;5117780;28;20050;-82
2021/12/22 04:35:15;;;;;;;6.90;3.03;;;30.90;90.40;;;;;;5116321;28;20027;-78
2021/12/22 04:37:42;;;;;;;7.22;3.05;;;30.90;90.00;;;;;;5108913;28;20059;-77
2021/12/22 04:40:11;;;;;;;4.70;2.67;;;30.90;90.20;;;;;;5111767;28;20104;-81
2021/12/22 04:42:38;;;;;;;5.55;2.72;;;31.10;90.50;;;;;;5114620;28;20031;-80
2021/12/22 04:45:07;;;;;;;6.20;3.30;;;31.10;90.10;;;;;;5099455;27;20107;-81
2021/12/22 04:47:35;;;;;;;3.28;2.17;;;31.10;90.10;;;;;;5110831;28;20028;-78
2021/12/22 04:50:09;;;;;;;8.73;2.85;;;31.10;90.10;;;;;;5114902;28;20031;-79
2021/12/22 04:52:50;;;;;;;6.00;3.03;;;31.40;90.20;;;;;;5115427;28;20110;-82
2021/12/22 04:55:18;;;;;;;6.32;2.80;;;31.40;90.00;;;;;;5115073;27;20456;-82
2021/12/22 04:57:45;;;;;;;6.05;2.70;;;31.50;90.60;;;;;;5109477;27;20032;-79
2021/12/22 05:00:16;;;;;;;9.65;3.08;;;31.70;89.60;;;;;;5116245;28;20050;-80
2021/12/22 05:02:43;;;;;;;4.68;2.15;;;31.70;89.00;;;;;;5113283;28;20024;-79
2021/12/22 05:05:11;;;;;;;5.90;2.60;;;31.60;89.40;;;;;;5113603;27;20489;-79
2021/12/22 05:07:40;;;;;;;10.82;3.60;;;31.60;89.40;;;;;;5114822;27;20067;-83
2021/12/22 05:10:08;;;;;;;7.60;3.30;;;31.50;90.80;;;;;;5115561;28;20032;-84
2021/12/22 05:12:35;;;;;;;9.85;3.55;;;31.40;90.00;;;;;;5112111;28;20024;-79
2021/12/22 05:15:03;;;;;;;6.07;3.25;;;31.20;90.10;;;;;;5106022;27;20835;-74
2021/12/22 05:20:13;;;;;;;15.18;3.83;;;31.20;90.60;;;;;;5109983;27;20019;-71
2021/12/22 05:22:40;;;;;;;5.38;2.80;;;30.90;91.20;;;;;;5102504;28;20832;-72
2021/12/22 05:25:10;;;;;;;7.30;4.00;;;30.60;91.30;;;;;;5104516;27;20133;-71
2021/12/22 05:27:37;;;;;;;9.27;2.95;;;30.40;91.40;;;;;;5110542;28;20024;-73
2021/12/22 05:30:07;;;;;;;8.70;3.85;;;30.10;91.80;;;;;;5110440;28;20035;-73
2021/12/22 05:32:36;;;;;;;12.70;3.45;;;29.90;91.80;;;;;;5106291;28;20027;-72
2021/12/22 05:35:06;;;;;;;10.05;3.10;;;30.00;91.90;;;;;;5113633;28;20106;-73
2021/12/22 05:37:34;;;;;;;8.55;3.38;;;30.10;92.40;;;;;;5111322;28;20062;-72
2021/12/22 05:40:01;;;;;;;8.40;3.28;;;30.00;91.60;;;;;;5111894;28;20047;-72
2021/12/22 05:42:29;;;;;;;10.98;3.85;;;29.90;91.80;;;;;;5112287;28;20031;-72
2021/12/22 05:44:56;;;;;;;7.63;3.88;;;29.90;92.00;;;;;;5113519;28;20032;-73
2021/12/22 05:47:24;;;;;;;8.25;3.45;;;29.80;92.00;;;;;;5107186;28;20035;-73
2021/12/22 05:49:51;;;;;;;13.00;3.72;;;29.90;91.90;;;;;;5094410;28;20028;-73
2021/12/22 05:52:18;;;;;;;8.90;4.25;;;29.70;92.30;;;;;;5108741;28;20027;-72
2021/12/22 05:54:46;;;;;;;9.70;3.38;;;29.80;92.00;;;;;;5112365;28;20103;-72
2021/12/22 05:57:13;;;;;;;10.85;4.13;;;29.60;92.00;;;;;;5109521;28;20466;-73
2021/12/22 05:59:41;;;;;;;9.80;4.35;;;29.40;92.70;;;;;;5112317;28;20031;-73
2021/12/22 06:02:08;;;;;;;9.63;4.55;;;29.30;92.80;;;;;;5109978;28;20019;-73
2021/12/22 06:04:35;;;;;;;12.27;3.95;;;29.10;93.00;;;;;;5105666;28;20016;-73
2021/12/22 06:07:03;;;;;;;11.18;4.18;;;28.90;93.20;;;;;;5107668;27;20028;-73
2021/12/22 06:09:31;;;;;;;7.13;3.47;;;28.90;92.90;;;;;;5111106;28;20047;-73
2021/12/22 06:11:58;;;;;;;8.60;4.00;;;28.90;92.70;;;;;;5110405;28;20034;-73
2021/12/22 06:14:26;;;;;;;10.60;4.38;;;28.80;93.20;;;;;;5112406;28;20050;-72
2021/12/22 06:16:53;;;;;;;8.77;3.47;;;28.60;93.20;;;;;;5104603;28;20088;-73
2021/12/22 06:19:21;;;;;;;7.70;3.97;;;28.70;93.30;;;;;;5112809;28;20020;-72
2021/12/22 06:21:50;;;;;;;11.60;4.60;;;28.70;93.30;;;;;;5103754;28;20390;-72
2021/12/22 06:24:17;;;;;;;12.10;4.72;;;28.70;93.40;;;;;;5105946;28;20107;-71
2021/12/22 06:26:45;;;;;;;11.52;3.90;;;28.60;93.30;;;;;;5103506;28;20028;-72
2021/12/22 06:29:12;;;;;;;7.50;4.05;;;28.50;93.70;;;;;;5111895;28;20024;-72
2021/12/22 06:31:40;;;;;;;8.80;5.07;;;28.60;93.90;;;;;;5111474;28;20102;-72
2021/12/22 06:34:07;;;;;;;11.65;4.75;;;28.60;93.20;;;;;;5110213;28;20431;-73
2021/12/22 06:36:34;;;;;;;8.15;3.92;;;28.60;93.40;;;;;;5111445;28;20036;-74
2021/12/22 06:39:04;;;;;;;14.02;4.57;;;28.50;93.70;;;;;;5093642;28;20119;-73
2021/12/22 06:41:32;;;;;;;11.63;4.35;;;28.50;93.90;;;;;;5111093;28;20035;-73
2021/12/22 06:43:59;;;;;;;10.88;5.53;;;28.40;94.20;;;;;;5112503;28;20027;-73
2021/12/22 06:46:27;;;;;;;10.63;3.72;;;28.40;94.00;;;;;;5111308;28;20015;-72
2021/12/22 06:48:54;;;;;;;9.63;4.00;;;28.30;93.70;;;;;;5112474;28;20104;-74
2021/12/22 06:51:22;;;;;;;6.60;3.55;;;28.10;94.00;;;;;;5111445;28;20041;-73
2021/12/22 06:53:49;;;;;;;10.18;4.30;;;27.90;94.00;;;;;;5112206;28;20020;-72
2021/12/22 06:56:16;;;;;;;7.95;3.92;;;27.70;94.40;;;;;;5107294;28;20032;-71
2021/12/22 06:58:44;;;;;;;8.35;4.72;;;27.60;94.60;;;;;;5112686;28;20593;-73
2021/12/22 07:01:17;;;;;;;8.98;3.70;;;27.60;94.60;;;;;;5110800;28;20389;-72
2021/12/22 07:03:44;;;;;;;10.68;4.57;;;27.60;94.60;;;;;;5112159;28;20031;-72
2021/12/22 07:06:11;;;;;;;8.60;3.95;;;27.60;94.70;;;;;;5110255;28;20034;-72
2021/12/22 07:08:39;;;;;;;12.52;4.03;;;27.40;94.60;;;;;;5109292;28;20080;-72
2021/12/22 07:11:07;;;;;;;8.65;3.50;;;27.20;95.20;;;;;;5086917;28;20032;-72
2021/12/22 07:13:34;;;;;;;8.20;3.90;;;27.10;95.40;;;;;;5106045;28;20066;-72
2021/12/22 07:16:02;;;;;;;8.77;3.78;;;27.00;95.30;;;;;;5110705;28;20019;-72
2021/12/22 07:18:32;;;;;;;14.88;4.20;;;27.00;95.30;;;;;;5111943;28;20455;-71
2021/12/22 07:21:00;;;;;;;9.80;4.80;;;26.80;95.70;;;;;;5110699;28;20095;-73
2021/12/22 07:23:28;;;;;;;8.15;4.15;;;26.70;96.00;;;;;;5092090;28;20031;-72
2021/12/22 07:25:55;;;;;;;9.18;4.03;;;26.70;96.10;;;;;;5104352;28;20028;-73
2021/12/22 07:28:23;;;;;;;8.27;3.75;;;26.70;96.00;;;;;;5110529;28;20084;-73
2021/12/22 07:30:51;;;;;;;7.15;2.83;;;26.70;96.10;;;;;;5098030;28;20087;-72
2021/12/22 07:33:18;;;;;;;8.45;2.97;;;26.60;96.20;;;;;;5106935;28;20019;-72
2021/12/22 07:36:00;;;;;;;12.07;3.75;;;26.50;96.60;;;;;;5108782;28;20035;-72
2021/12/22 07:38:34;;;;;;;11.63;4.30;;;26.40;96.90;;;;;;5111634;28;20091;-74
2021/12/22 07:41:04;;;;;;;9.70;3.25;;;26.40;96.90;;;;;;5109300;28;20042;-73
2021/12/22 07:43:31;;;;;;;12.38;4.18;;;26.40;97.20;;;;;;5112349;28;20051;-73
2021/12/22 07:45:59;;;;;;;11.48;3.92;;;26.30;97.30;;;;;;5105542;27;20032;-73
2021/12/22 07:48:26;;;;;;;9.05;2.88;;;26.20;97.70;;;;;;5108444;28;20036;-74
2021/12/22 07:50:54;;;;;;;6.80;2.60;;;26.00;97.70;;;;;;5095574;28;20123;-74
2021/12/22 07:53:22;;;;;;;10.82;2.95;;;26.00;98.10;;;;;;5110221;28;20351;-71
2021/12/22 07:55:53;;;;;;;9.48;3.25;;;26.00;98.00;;;;;;5110821;28;20034;-73
2021/12/22 07:58:25;;;;;;;7.78;2.67;;;25.90;98.10;;;;;;5109938;28;20182;-72
2021/12/22 08:00:54;;;;;;;6.40;2.67;;;25.80;98.20;;;;;;5109998;28;20477;-72
2021/12/22 08:03:21;;;;;;;6.30;3.13;;;25.80;98.30;;;;;;5108792;28;20509;-71
2021/12/22 08:05:49;;;;;;;11.48;3.25;;;25.80;98.30;;;;;;5110150;28;20427;-72
2021/12/22 08:08:18;;;;;;;8.75;3.55;;;25.80;98.50;;;;;;5110855;28;20443;-72
2021/12/22 08:10:47;;;;;;;7.00;2.28;;;25.70;98.40;;;;;;5107990;28;20031;-73
2021/12/22 08:13:17;;;;;;;8.27;2.92;;;25.60;98.90;;;;;;5111537;28;20437;-72
2021/12/22 08:15:45;;;;;;;7.25;2.28;;;25.50;99.20;;;;;;5109970;28;20042;-73
2021/12/22 08:18:13;;;;;;;7.93;3.00;;;25.50;99.30;;;;;;5110753;28;20083;-73
2021/12/22 08:20:40;;;;;;;9.45;2.15;;;25.50;99.30;;;;;;5108114;28;20059;-73
2021/12/22 08:23:08;;;;;;;7.68;3.20;;;25.40;99.40;;;;;;5111280;28;20101;-72
2021/12/22 08:25:35;;;;;;;11.25;3.42;;;25.40;99.70;;;;;;5105639;28;20027;-72
2021/12/22 08:28:03;;;;;;;9.18;2.90;;;25.40;99.70;;;;;;5105659;28;20582;-73
2021/12/22 08:30:30;;;;;;;10.35;3.00;;;25.50;99.60;;;;;;5106272;28;20027;-73
2021/12/22 08:33:04;;;;;;;8.77;2.90;;;25.40;99.90;;;;;;5100426;28;20137;-76
2021/12/22 08:38:50;;;;;;;6.43;2.10;;;25.40;99.80;;;;;;5098395;28;20073;-76
2021/12/22 08:41:05;;;;;;;8.15;1.90;;;25.50;99.30;;;;;;5104481;28;20143;-80
2021/12/22 08:43:32;;;;;;;6.15;2.67;;;25.60;99.20;;;;;;5109667;28;20106;-78
2021/12/22 08:45:59;;;;;;;9.45;2.28;;;25.60;99.10;;;;;;5104710;28;20083;-80
2021/12/22 08:48:27;;;;;;;5.88;2.47;;;25.70;99.10;;;;;;5107454;28;20038;-80
2021/12/22 08:50:54;;;;;;;7.03;2.83;;;25.80;98.80;;;;;;5105260;28;20015;-81
2021/12/22 08:53:24;;;;;;;3.97;1.52;;;25.80;98.70;;;;;;5106351;28;20047;-80
2021/12/22 08:55:52;;;;;;;4.88;1.90;;;25.80;98.70;;;;;;5106832;28;20015;-80
2021/12/22 08:58:19;;;;;;;10.15;2.85;;;25.80;98.70;;;;;;5111517;28;20096;-81
2021/12/22 09:00:46;;;;;;;6.90;2.60;;;25.80;98.80;;;;;;5110353;28;20027;-80
2021/12/22 09:03:13;;;;;;;6.28;2.20;;;25.60;99.00;;;;;;5099182;27;20122;-77
2021/12/22 09:05:41;;;;;;;8.13;2.78;;;25.60;99.10;;;;;;5102731;27;20080;-79
2021/12/22 09:08:08;;;;;;;6.90;2.13;;;25.60;99.20;;;;;;5104861;27;20020;-80
2021/12/22 09:10:36;;;;;;;6.32;1.95;;;25.60;99.30;;;;;;5110510;28;20031;-78
2021/12/22 09:13:03;;;;;;;6.45;2.10;;;25.50;99.70;;;;;;5102008;27;20023;-79
2021/12/22 09:15:31;;;;;;;9.80;2.47;;;25.40;99.90;;;;;;5110497;28;21703;-82
2021/12/22 09:17:58;;;;;;;7.38;2.60;;;25.30;99.90;;;;;;5084675;28;20493;-83
2021/12/22 09:20:28;;;;;;;6.35;2.47;;;25.30;99.90;;;;;;5106106;28;20028;-81
2021/12/22 09:22:55;;;;;;;5.60;1.92;;;25.30;99.90;;;;;;5108780;28;20700;-81
2021/12/22 09:25:23;;;;;;;5.57;2.17;;;25.30;99.90;;;;;;5103891;28;20031;-80
2021/12/22 09:27:50;;;;;;;5.78;2.13;;;25.40;99.90;;;;;;5100079;27;20102;-79
2021/12/22 09:30:18;;;;;;;6.35;2.17;;;25.40;99.90;;;;;;5101287;27;20448;-81
2021/12/22 09:32:45;;;;;;;5.60;1.95;;;25.40;99.90;;;;;;5105065;28;20016;-81
2021/12/22 09:35:12;;;;;;;6.57;2.15;;;25.30;99.90;;;;;;5096672;28;20092;-82
2021/12/22 09:37:40;;;;;;;5.93;1.70;;;25.30;99.90;;;;;;5102216;27;20028;-80
2021/12/22 09:40:08;;;;;;;3.90;1.67;;;25.20;99.90;;;;;;5103798;28;20043;-80
2021/12/22 09:42:36;;;;;;;6.22;2.08;;;25.20;99.90;;;;;;5103553;27;20441;-79
2021/12/22 09:45:03;;;;;;;6.80;1.80;;;25.20;99.90;;;;;;5101061;27;20446;-79
2021/12/22 09:47:41;;;;;;;6.40;2.65;;;25.20;99.90;;;;;;5106593;27;20550;-79
2021/12/22 09:50:11;;;;;;;10.80;3.28;;;25.20;99.90;;;;;;5103428;28;20031;-82
2021/12/22 09:52:40;;;;;;;6.20;1.80;;;25.00;99.90;;;;;;5104311;28;20023;-80
2021/12/22 09:55:10;;;;;;;8.75;2.13;;;24.90;99.90;;;;;;5106319;27;20027;-81
2021/12/22 09:57:37;;;;;;;11.45;2.45;;;24.90;99.90;;;;;;5106315;28;20517;-78
2021/12/22 10:00:08;;;;;;;9.68;2.33;;;24.90;99.90;;;;;;5110798;28;20107;-81
2021/12/22 10:02:35;;;;;;;6.65;1.45;;;25.00;99.90;;;;;;5105066;28;20047;-77
2021/12/22 10:05:03;;;;;;;11.15;2.50;;;25.00;99.90;;;;;;5105887;27;20052;-82
2021/12/22 10:07:37;;;;;;;6.47;1.67;;;25.00;99.90;;;;;;5104935;28;20061;-81
2021/12/22 10:10:09;;;;;;;5.72;2.50;;;25.00;99.90;;;;;;5102181;27;20108;-81
2021/12/22 10:12:38;;;;;;;3.97;1.80;;;25.10;99.90;;;;;;5101523;27;20577;-82
2021/12/22 10:15:08;;;;;;;6.63;1.35;;;25.00;99.90;;;;;;5102783;28;20056;-82
2021/12/22 10:17:43;;;;;;;8.68;2.17;;;24.90;99.90;;;;;;5103485;28;21282;-79
2021/12/22 10:20:13;;;;;;;9.23;2.35;;;25.00;99.90;;;;;;5101909;27;20032;-82
2021/12/22 10:22:47;;;;;;;10.50;2.08;;;25.00;99.90;;;;;;5101244;27;20077;-81
2021/12/22 10:25:17;;;;;;;4.57;1.30;;;25.00;99.90;;;;;;5109197;28;20019;-81
2021/12/22 10:27:56;;;;;;;7.10;1.80;;;24.90;99.90;;;;;;5102770;28;20102;-81
2021/12/22 10:30:34;;;;;;;6.22;2.30;;;24.90;99.90;;;;;;5103861;27;20110;-81
2021/12/22 10:33:15;;;;;;;7.78;2.08;;;24.80;99.90;;;;;;5105308;28;20045;-79
2021/12/22 10:35:45;;;;;;;9.00;2.65;;;24.80;99.90;;;;;;5101284;27;20081;-82
2021/12/22 10:38:15;;;;;;;7.07;2.15;;;24.80;99.90;;;;;;5107126;28;20039;-79
2021/12/22 10:40:45;;;;;;;5.45;2.00;;;24.70;99.90;;;;;;5102509;27;20040;-81
2021/12/22 10:43:24;;;;;;;9.52;2.40;;;24.70;99.90;;;;;;5107920;28;20044;-80
2021/12/22 10:45:56;;;;;;;4.40;1.85;;;24.70;99.90;;;;;;5108369;27;20027;-81
2021/12/22 10:51:19;;;;;;;7.57;1.88;;;24.60;99.90;;;;;;5110057;28;20591;-81
2021/12/22 10:53:50;;;;;;;6.22;1.70;;;24.60;99.90;;;;;;5101243;27;20032;-78
2021/12/22 10:56:26;;;;;;;4.72;2.05;;;24.60;99.90;;;;;;5100858;27;20019;-77
2021/12/22 10:59:00;;;;;;;6.18;2.55;;;24.60;99.90;;;;;;5107870;28;20047;-78
2021/12/22 11:01:28;;;;;;;4.28;1.67;;;24.60;99.90;;;;;;5107150;28;20052;-78
2021/12/22 11:04:03;;;;;;;7.68;1.90;;;24.60;99.90;;;;;;5102876;28;20028;-76
2021/12/22 11:06:35;;;;;;;4.95;1.45;;;24.60;99.90;;;;;;5105099;28;20076;-77
2021/12/22 11:09:13;;;;;;;6.88;1.75;;;24.70;99.90;;;;;;5110407;28;20437;-78
2021/12/22 11:11:46;;;;;;;4.70;1.95;;;24.70;99.90;;;;;;5104375;28;20103;-77
2021/12/22 11:14:23;;;;;;;5.80;2.72;;;24.70;99.90;;;;;;5109179;28;20034;-76
2021/12/22 11:16:54;;;;;;;3.88;1.55;;;24.60;99.90;;;;;;5111589;28;20075;-78
2021/12/22 11:19:23;;;;;;;9.93;2.05;;;24.60;99.90;;;;;;5111986;28;20023;-78
2021/12/22 11:24:45;;;;;;;8.82;2.38;;;24.70;99.90;;;;;;5109163;28;20040;-77
2021/12/22 11:27:16;;;;;;;6.10;2.28;;;24.50;99.90;;;;;;5108461;28;20054;-78
2021/12/22 11:29:47;;;;;;;8.73;1.83;;;24.60;99.90;;;;;;5109485;28;20019;-78
2021/12/22 11:32:17;;;;;;;3.28;1.60;;;24.60;99.90;;;;;;5108594;28;20040;-77
2021/12/22 11:34:49;;;;;;;4.80;1.85;;;24.50;99.90;;;;;;5082416;28;20030;-77
2021/12/22 11:37:17;;;;;;;9.85;2.28;;;24.50;99.90;;;;;;5104923;28;20038;-78
2021/12/22 11:39:46;;;;;;;4.43;2.65;;;24.40;99.90;;;;;;5104144;28;20043;-77
2021/12/22 11:42:14;;;;;;;5.22;2.70;;;24.30;99.90;;;;;;5103583;28;20038;-79
2021/12/22 11:44:46;;;;;;;8.88;3.33;;;24.20;99.90;;;;;;5100714;28;20031;-77
2021/12/22 11:47:18;;;;;;;11.05;3.92;;;24.00;99.90;;;;;;5103741;28;20027;-76
2021/12/22 11:49:51;;;;;;;7.28;3.40;;;23.90;99.90;;;;;;5105544;28;20034;-78
2021/12/22 11:52:31;;;;;;;7.57;3.70;;;23.80;99.90;;;;;;5105909;28;20063;-78
2021/12/22 11:55:21;;;;;;;8.82;3.75;;;23.70;99.90;;;;;;5105271;28;20051;-81
2021/12/22 11:57:54;;;;;;;12.93;4.25;;;23.60;99.90;;;;;;5100758;28;20030;-76
2021/12/22 12:00:42;;;;;;;9.20;4.32;;;23.50;99.90;;;;;;5105958;28;20036;-77
2021/12/22 12:03:43;;;;;;;9.65;2.63;;;23.40;99.90;;;;;;5107268;28;20474;-77
2021/12/22 12:06:14;;;;;;;10.98;4.38;;;23.30;99.90;;;;;;5084519;28;20060;-76
2021/12/22 12:08:48;;;;;;;11.27;4.22;;;23.20;99.90;;;;;;5106467;28;20032;-77
2021/12/22 12:14:36;;;;;;;7.07;3.88;;;23.10;99.90;;;;;;5100638;28;20031;-82
2021/12/22 12:23:33;;;;;;;12.55;4.25;;;23.00;99.90;;;;;;5106250;28;20613;-80
2021/12/22 12:26:05;;;;;;;12.13;4.70;;;23.00;99.90;;;;;;5106278;28;20031;-80
2021/12/22 12:28:46;;;;;;;10.10;4.60;;;22.90;99.90;;;;;;5107044;28;20055;-79
2021/12/22 12:31:14;;;;;;;12.00;4.15;;;22.90;99.90;;;;;;5104983;28;20035;-80
2021/12/22 12:33:45;;;;;;;10.35;3.55;;;22.90;99.90;;;;;;5103574;28;20055;-78
2021/12/22 12:36:18;;;;;;;9.38;4.68;;;22.80;99.90;;;;;;5107259;28;20024;-77
2021/12/22 12:38:49;;;;;;;8.43;4.00;;;22.90;99.90;;;;;;5105587;28;20143;-79
2021/12/22 12:41:29;;;;;;;9.10;3.70;;;22.80;99.90;;;;;;5111011;28;20027;-79
2021/12/22 12:44:02;;;;;;;11.23;3.90;;;22.80;99.90;;;;;;5113524;28;20627;-80
2021/12/22 12:46:47;;;;;;;9.70;4.10;;;22.70;99.90;;;;;;5111819;28;20032;-77
2021/12/22 12:49:15;;;;;;;9.20;3.90;;;22.70;99.90;;;;;;5113226;28;20631;-79
2021/12/22 12:51:47;;;;;;;9.00;4.65;;;22.70;99.90;;;;;;5104566;28;20105;-76
2021/12/22 12:54:17;;;;;;;9.48;4.13;;;22.70;99.90;;;;;;5109700;28;20031;-76
2021/12/22 12:56:46;;;;;;;8.60;3.83;;;22.70;99.90;;;;;;5111827;28;20043;-75
2021/12/22 12:59:16;;;;;;;7.15;3.85;;;22.70;99.90;;;;;;5111785;28;20008;-75
2021/12/22 13:01:46;;;;;;;7.00;4.18;;;22.60;99.90;;;;;;5113128;28;20032;-76
2021/12/22 13:04:29;;;;;;;6.57;4.15;;;22.60;99.90;;;;;;5106309;28;20535;-76
2021/12/22 13:07:13;;;;;;;9.68;4.70;;;22.60;99.90;;;;;;5104897;28;20456;-77
2021/12/22 13:09:54;;;;;;;9.77;4.75;;;22.50;99.90;;;;;;5106718;28;20441;-78
2021/12/22 13:17:55;;;;;;;6.53;3.78;;;22.40;99.90;;;;;;5113924;28;20050;-78
2021/12/22 13:20:31;;;;;;;7.70;4.50;;;22.50;99.90;;;;;;5110753;28;20032;-77
2021/12/22 13:23:01;;;;;;;8.70;4.35;;;22.50;99.90;;;;;;5110309;28;20062;-77
2021/12/22 13:25:42;;;;;;;7.00;3.35;;;22.50;99.90;;;;;;5107705;28;20027;-77
2021/12/22 13:28:13;;;;;;;10.23;4.88;;;22.50;99.90;;;;;;5112624;28;20028;-76
2021/12/22 13:30:52;;;;;;;12.60;4.55;;;22.50;99.90;;;;;;5113142;28;20020;-77
2021/12/22 13:33:41;;;;;;;8.88;3.20;;;22.50;99.90;;;;;;5111248;28;20030;-79